createdAt,value
2022-07-26T00:01:15.122Z,42.07
2022-07-26T00:03:41.930Z,40.82
2022-07-26T00:06:08.876Z,41.75
2022-07-26T00:08:35.540Z,41.25
2022-07-26T00:11:07.039Z,42.40
2022-07-26T00:13:35.161Z,40.65
2022-07-26T00:16:02.299Z,41.46
2022-07-26T00:18:29.022Z,43.04
2022-07-26T00:20:55.707Z,43.50
2022-07-26T00:23:22.626Z,41.81
2022-07-26T00:25:49.479Z,42.33
2022-07-26T00:28:16.153Z,41.32
2022-07-26T00:30:43.206Z,42.61
2022-07-26T00:33:09.855Z,41.89
2022-07-26T00:35:36.498Z,42.04
2022-07-26T00:38:03.143Z,42.90
2022-07-26T00:40:30.484Z,42.75
2022-07-26T00:42:57.124Z,42.76
2022-07-26T00:45:23.806Z,42.19
2022-07-26T00:47:50.511Z,42.36
2022-07-26T00:50:18.729Z,44.14
2022-07-26T00:52:47.743Z,46.49
2022-07-26T00:55:15.493Z,47.19
2022-07-26T00:57:43.090Z,46.04
2022-07-26T01:00:16.173Z,43.53
2022-07-26T01:02:43.569Z,45.77
2022-07-26T01:05:11.163Z,44.81
2022-07-26T01:07:38.899Z,46.82
2022-07-26T01:10:09.075Z,46.01
2022-07-26T01:12:36.683Z,45.85
2022-07-26T01:15:03.789Z,45.53
2022-07-26T01:17:30.532Z,44.61
2022-07-26T01:19:57.168Z,44.29
2022-07-26T01:22:23.816Z,45.93
2022-07-26T01:24:50.553Z,45.92
2022-07-26T01:27:17.492Z,46.51
2022-07-26T01:29:44.213Z,45.58
2022-07-26T01:32:10.879Z,44.67
2022-07-26T01:34:37.509Z,45.46
2022-07-26T01:37:04.309Z,44.83
2022-07-26T01:39:30.959Z,46.78
2022-07-26T01:41:57.594Z,46.58
2022-07-26T01:44:24.377Z,46.19
2022-07-26T01:46:51.135Z,45.91
2022-07-26T01:49:18.020Z,46.21
2022-07-26T01:51:44.734Z,46.27
2022-07-26T01:54:12.924Z,45.89
2022-07-26T01:56:39.693Z,46.23
2022-07-26T01:59:06.372Z,47.13
2022-07-26T02:01:38.845Z,46.14
2022-07-26T02:04:08.979Z,46.98
2022-07-26T02:06:36.047Z,47.05
2022-07-26T02:09:04.522Z,45.83
2022-07-26T02:11:34.157Z,45.89
2022-07-26T02:14:00.778Z,46.57
2022-07-26T02:16:27.521Z,46.18
2022-07-26T02:18:54.234Z,47.51
2022-07-26T02:21:20.894Z,45.64
2022-07-26T02:23:47.509Z,47.09
2022-07-26T02:26:14.179Z,46.89
2022-07-26T02:28:40.902Z,45.68
2022-07-26T02:31:07.593Z,46.59
2022-07-26T02:33:34.288Z,47.03
2022-07-26T02:36:00.938Z,47.76
2022-07-26T02:38:27.569Z,47.53
2022-07-26T02:40:54.320Z,47.91
2022-07-26T02:43:21.052Z,46.92
2022-07-26T02:46:01.226Z,46.78
2022-07-26T02:48:29.048Z,46.23
2022-07-26T02:50:55.702Z,47.88
2022-07-26T02:53:22.362Z,47.13
2022-07-26T02:55:48.991Z,47.05
2022-07-26T02:58:15.599Z,47.14
2022-07-26T03:00:42.417Z,47.64
2022-07-26T03:03:09.200Z,48.31
2022-07-26T03:05:35.921Z,48.93
2022-07-26T03:08:02.610Z,48.44
2022-07-26T03:10:29.358Z,48.41
2022-07-26T03:12:57.075Z,49.90
2022-07-26T03:15:23.780Z,47.59
2022-07-26T03:17:50.431Z,46.68
2022-07-26T03:20:17.226Z,47.04
2022-07-26T03:22:43.947Z,47.43
2022-07-26T03:25:10.602Z,48.71
2022-07-26T03:27:37.300Z,47.60
2022-07-26T03:30:05.313Z,48.63
2022-07-26T03:32:31.980Z,49.43
2022-07-26T03:34:58.776Z,49.36
2022-07-26T03:37:25.453Z,49.40
2022-07-26T03:40:12.597Z,48.39
2022-07-26T03:42:39.227Z,48.94
2022-07-26T03:45:06.481Z,48.78
2022-07-26T03:47:33.109Z,49.20
2022-07-26T03:49:59.754Z,49.24
2022-07-26T03:52:26.401Z,49.76
2022-07-26T03:54:53.037Z,50.59
2022-07-26T03:57:19.832Z,50.30
2022-07-26T03:59:46.496Z,51.32
2022-07-26T04:02:13.162Z,51.70
2022-07-26T04:04:39.817Z,51.16
2022-07-26T04:07:06.741Z,51.89
2022-07-26T04:09:36.002Z,51.47
2022-07-26T04:12:02.701Z,51.93
2022-07-26T04:14:29.322Z,52.08
2022-07-26T04:16:56.075Z,52.25
2022-07-26T04:19:22.721Z,52.56
2022-07-26T04:21:49.382Z,53.06
2022-07-26T04:24:16.062Z,53.27
2022-07-26T04:26:42.701Z,53.15
2022-07-26T04:29:09.331Z,53.18
2022-07-26T04:31:38.500Z,54.10
2022-07-26T04:34:05.404Z,54.36
2022-07-26T04:36:32.437Z,54.11
2022-07-26T04:38:59.097Z,55.31
2022-07-26T04:41:25.746Z,55.89
2022-07-26T04:43:52.591Z,55.55
2022-07-26T04:46:19.332Z,55.19
2022-07-26T04:48:46.117Z,54.60
2022-07-26T04:51:12.804Z,53.65
2022-07-26T04:53:39.497Z,53.33
2022-07-26T04:56:07.805Z,51.89
2022-07-26T04:58:34.447Z,50.32
2022-07-26T05:01:16.502Z,50.63
2022-07-26T05:03:43.698Z,48.76
2022-07-26T05:06:10.341Z,48.10
2022-07-26T05:08:36.989Z,50.63
2022-07-26T05:11:03.826Z,50.74
2022-07-26T05:13:31.114Z,51.43
2022-07-26T05:15:59.224Z,48.87
2022-07-26T05:18:26.065Z,47.55
2022-07-26T05:20:52.799Z,48.61
2022-07-26T05:23:19.612Z,48.30
2022-07-26T05:25:47.035Z,47.45
2022-07-26T05:28:13.661Z,49.00
2022-07-26T05:30:40.335Z,51.89
2022-07-26T05:33:07.086Z,51.03
2022-07-26T05:35:33.757Z,50.22
2022-07-26T05:38:00.400Z,48.76
2022-07-26T05:40:27.084Z,48.07
2022-07-26T05:42:53.714Z,48.89
2022-07-26T05:45:20.534Z,47.35
2022-07-26T05:47:50.665Z,46.10
2022-07-26T05:50:18.122Z,46.23
2022-07-26T05:52:44.805Z,47.50
2022-07-26T05:55:11.663Z,45.24
2022-07-26T05:57:38.666Z,44.16
2022-07-26T06:00:06.232Z,42.96
2022-07-26T06:02:34.672Z,44.09
2022-07-26T06:05:01.394Z,44.47
2022-07-26T06:07:28.028Z,43.96
2022-07-26T06:09:54.642Z,43.73
2022-07-26T06:12:21.329Z,43.44
2022-07-26T06:14:47.945Z,44.41
2022-07-26T06:17:14.744Z,43.52
2022-07-26T06:19:47.121Z,43.36
2022-07-26T06:22:14.359Z,43.15
2022-07-26T06:24:41.018Z,43.30
2022-07-26T06:27:07.699Z,42.55
2022-07-26T06:29:34.317Z,43.06
2022-07-26T06:32:01.193Z,43.32
2022-07-26T06:34:27.945Z,43.83
2022-07-26T06:36:54.710Z,43.76
2022-07-26T06:39:21.370Z,43.88
2022-07-26T06:41:48.097Z,46.93
2022-07-26T06:44:15.013Z,46.32
2022-07-26T06:46:41.670Z,46.93
2022-07-26T06:49:08.314Z,47.52
2022-07-26T06:51:35.017Z,48.38
2022-07-26T06:54:01.654Z,48.83
2022-07-26T06:56:28.407Z,49.20
2022-07-26T06:58:55.046Z,49.19
2022-07-26T07:01:58.610Z,49.08
2022-07-26T07:04:08.617Z,48.69
2022-07-26T07:06:35.559Z,48.77
2022-07-26T07:09:02.186Z,48.37
2022-07-26T07:11:28.850Z,48.93
2022-07-26T07:13:56.344Z,48.89
2022-07-26T07:16:23.026Z,49.04
2022-07-26T07:18:49.683Z,49.19
2022-07-26T07:21:16.290Z,48.15
2022-07-26T07:23:42.930Z,48.56
2022-07-26T07:26:09.565Z,48.85
2022-07-26T07:28:36.218Z,48.41
2022-07-26T07:31:03.846Z,47.65
2022-07-26T07:33:36.524Z,48.26
2022-07-26T07:36:17.470Z,48.13
2022-07-26T07:38:48.420Z,47.68
2022-07-26T07:41:16.286Z,46.32
2022-07-26T07:43:42.907Z,46.36
2022-07-26T07:46:09.582Z,45.78
2022-07-26T07:48:39.357Z,45.82
2022-07-26T07:51:08.376Z,45.90
2022-07-26T07:53:35.103Z,44.83
2022-07-26T07:56:02.566Z,45.81
2022-07-26T07:58:29.228Z,46.15
2022-07-26T08:00:55.922Z,44.01
2022-07-26T08:03:22.591Z,44.71
2022-07-26T08:05:49.323Z,45.33
2022-07-26T08:08:17.474Z,45.56
2022-07-26T08:10:52.026Z,46.31
2022-07-26T08:13:22.884Z,45.27
2022-07-26T08:15:51.375Z,47.03
2022-07-26T08:18:18.550Z,45.57
2022-07-26T08:20:49.518Z,46.12
2022-07-26T08:23:16.417Z,46.50
2022-07-26T08:25:55.651Z,45.88
2022-07-26T08:28:46.264Z,45.21
2022-07-26T08:31:10.259Z,45.51
2022-07-26T08:33:37.069Z,45.55
2022-07-26T08:36:07.897Z,46.02
2022-07-26T08:38:34.587Z,46.10
2022-07-26T08:41:01.257Z,47.69
2022-07-26T08:43:28.943Z,47.84
2022-07-26T08:46:01.777Z,47.94
2022-07-26T08:48:28.938Z,47.19
2022-07-26T08:50:57.117Z,46.91
2022-07-26T08:53:23.831Z,47.99
2022-07-26T08:56:06.558Z,48.40
2022-07-26T08:58:35.756Z,48.89
2022-07-26T09:01:10.807Z,47.76
2022-07-26T09:03:37.678Z,48.50
2022-07-26T09:06:19.885Z,48.55
2022-07-26T09:08:49.269Z,47.88
2022-07-26T09:11:25.169Z,48.93
2022-07-26T09:13:58.404Z,48.78
2022-07-26T09:16:25.635Z,47.55
2022-07-26T09:18:53.327Z,48.13
2022-07-26T09:21:35.710Z,47.08
2022-07-26T09:24:02.486Z,48.15
2022-07-26T09:26:29.162Z,47.18
2022-07-26T09:29:22.059Z,45.66
2022-07-26T09:31:48.838Z,45.64
2022-07-26T09:34:25.048Z,45.62
2022-07-26T09:36:53.965Z,46.61
2022-07-26T09:39:22.728Z,47.15
2022-07-26T09:42:26.777Z,47.85
2022-07-26T09:44:55.402Z,49.00
2022-07-26T09:47:22.954Z,48.06
2022-07-26T09:49:49.898Z,48.61
2022-07-26T09:52:19.727Z,48.87
2022-07-26T09:54:47.764Z,48.66
2022-07-26T09:57:19.193Z,48.99
2022-07-26T09:59:47.298Z,50.58
2022-07-26T10:02:14.627Z,54.35
2022-07-26T10:04:42.474Z,57.80
2022-07-26T10:07:10.621Z,57.92
2022-07-26T10:09:50.470Z,61.56
2022-07-26T10:12:17.374Z,65.19
2022-07-26T10:14:48.652Z,66.32
2022-07-26T10:17:31.345Z,68.03
2022-07-26T10:20:00.490Z,69.17
2022-07-26T10:22:43.403Z,72.52
2022-07-26T10:25:19.214Z,71.22
2022-07-26T10:27:54.951Z,73.41
2022-07-26T10:30:23.453Z,74.86
2022-07-26T10:33:01.931Z,75.60
2022-07-26T10:35:34.535Z,76.61
2022-07-26T10:38:21.878Z,75.41
2022-07-26T10:41:06.584Z,78.90
2022-07-26T10:43:42.311Z,81.41
2022-07-26T10:46:18.733Z,81.33
2022-07-26T10:49:02.755Z,82.63
2022-07-26T10:51:36.269Z,85.34
2022-07-26T10:54:13.896Z,84.36
2022-07-26T10:56:41.133Z,84.23
2022-07-26T10:59:07.919Z,83.41
2022-07-26T11:01:37.006Z,86.05
2022-07-26T11:04:04.769Z,84.90
2022-07-26T11:06:32.619Z,86.09
2022-07-26T11:09:10.105Z,88.93
2022-07-26T11:11:36.779Z,90.92
2022-07-26T11:14:07.465Z,94.57
2022-07-26T11:16:46.805Z,96.73
2022-07-26T11:19:14.371Z,96.00
2022-07-26T11:21:41.786Z,95.91
2022-07-26T11:24:08.837Z,93.76
2022-07-26T11:26:43.744Z,91.69
2022-07-26T11:29:10.687Z,90.54
2022-07-26T11:31:50.604Z,91.46
2022-07-26T11:34:29.035Z,90.18
2022-07-26T11:36:58.042Z,90.99
2022-07-26T11:39:26.917Z,91.05
2022-07-26T11:41:59.617Z,90.43
2022-07-26T11:44:27.878Z,93.93
2022-07-26T11:46:54.889Z,93.98
2022-07-26T11:52:25.497Z,93.02
2022-07-26T11:54:53.721Z,91.65
2022-07-26T11:57:20.921Z,93.25
2022-07-26T11:59:48.812Z,90.85
2022-07-26T12:02:15.945Z,91.41
2022-07-26T12:04:43.925Z,89.41
2022-07-26T12:07:18.772Z,88.92
2022-07-26T12:09:54.625Z,90.50
2022-07-26T12:12:24.098Z,89.07
2022-07-26T12:15:00.611Z,89.30
2022-07-26T12:17:35.263Z,87.70
2022-07-26T12:20:17.415Z,87.31
2022-07-26T12:22:57.989Z,85.66
2022-07-26T12:25:29.085Z,82.59
2022-07-26T12:27:56.574Z,84.51
2022-07-26T12:30:23.521Z,84.27
2022-07-26T12:32:50.715Z,83.31
2022-07-26T12:35:30.450Z,82.72
2022-07-26T12:37:57.094Z,81.57
2022-07-26T12:40:26.640Z,80.78
2022-07-26T12:43:01.031Z,76.74
2022-07-26T12:45:34.214Z,77.18
2022-07-26T12:48:03.322Z,75.41
2022-07-26T12:50:30.762Z,75.62
2022-07-26T12:53:06.020Z,75.21
2022-07-26T12:55:33.451Z,74.55
2022-07-26T12:58:00.303Z,75.74
2022-07-26T13:00:28.600Z,74.62
2022-07-26T13:02:56.856Z,76.48
2022-07-26T13:05:23.535Z,76.30
2022-07-26T13:07:50.283Z,76.37
2022-07-26T13:10:34.740Z,76.22
2022-07-26T13:13:02.913Z,74.93
2022-07-26T13:15:36.114Z,75.36
2022-07-26T13:18:08.847Z,76.96
2022-07-26T13:20:39.207Z,76.59
2022-07-26T13:23:07.008Z,76.44
2022-07-26T13:25:39.954Z,74.72
2022-07-26T13:28:07.762Z,78.42
2022-07-26T13:30:36.610Z,80.41
2022-07-26T13:33:03.394Z,79.45
2022-07-26T13:35:30.101Z,78.13
2022-07-26T13:37:56.820Z,78.40
2022-07-26T13:40:27.550Z,78.89
2022-07-26T13:42:57.848Z,78.24
2022-07-26T13:45:24.483Z,78.18
2022-07-26T13:47:56.139Z,76.86
2022-07-26T13:50:22.838Z,77.56
2022-07-26T13:52:49.615Z,76.76
2022-07-26T13:55:16.259Z,77.73
2022-07-26T13:57:56.079Z,75.59
2022-07-26T14:00:29.157Z,76.49
2022-07-26T14:02:58.430Z,77.55
2022-07-26T14:05:25.971Z,76.66
2022-07-26T14:07:52.852Z,74.63
2022-07-26T14:10:21.241Z,72.85
2022-07-26T14:12:48.253Z,73.08
2022-07-26T14:15:21.153Z,71.87
2022-07-26T14:17:48.654Z,72.87
2022-07-26T14:20:15.430Z,73.47
2022-07-26T14:22:42.091Z,73.80
2022-07-26T14:25:09.172Z,71.08
2022-07-26T14:27:35.882Z,71.11
2022-07-26T14:30:04.122Z,70.62
2022-07-26T14:32:30.790Z,69.37
2022-07-26T14:34:57.414Z,68.84
2022-07-26T14:37:42.244Z,68.33
2022-07-26T14:40:11.709Z,70.37
2022-07-26T14:42:38.420Z,71.16
2022-07-26T14:45:05.675Z,69.75
2022-07-26T14:47:32.358Z,71.13
2022-07-26T14:50:02.884Z,69.71
2022-07-26T14:52:33.077Z,70.21
2022-07-26T14:54:59.719Z,70.51
2022-07-26T14:57:26.344Z,71.42
2022-07-26T14:59:52.983Z,71.55
2022-07-26T15:02:19.754Z,71.90
2022-07-26T15:04:46.446Z,72.02
2022-07-26T15:07:13.097Z,70.93
2022-07-26T15:09:39.880Z,70.63
2022-07-26T15:12:06.798Z,71.77
2022-07-26T15:14:33.430Z,70.83
2022-07-26T15:17:00.113Z,71.08
2022-07-26T15:19:26.903Z,70.53
2022-07-26T15:21:54.518Z,71.11
2022-07-26T15:24:23.106Z,71.72
2022-07-26T15:26:51.124Z,70.25
2022-07-26T15:29:17.903Z,70.41
2022-07-26T15:31:44.739Z,70.54
2022-07-26T15:34:11.919Z,72.12
2022-07-26T15:36:38.912Z,71.40
2022-07-26T15:39:16.693Z,71.06
2022-07-26T15:41:45.602Z,70.41
2022-07-26T15:44:12.820Z,70.98
2022-07-26T15:46:39.908Z,71.08
2022-07-26T15:49:07.546Z,71.21
2022-07-26T15:51:34.378Z,70.66
2022-07-26T15:54:02.961Z,70.29
2022-07-26T15:56:29.723Z,70.47
2022-07-26T15:58:56.449Z,69.81
2022-07-26T16:01:23.302Z,67.98
2022-07-26T16:03:50.106Z,69.38
2022-07-26T16:06:16.870Z,68.76
2022-07-26T16:09:05.812Z,68.04
2022-07-26T16:11:31.409Z,67.64
2022-07-26T16:14:01.102Z,67.67
2022-07-26T16:16:30.243Z,67.58
2022-07-26T16:18:57.512Z,68.15
2022-07-26T16:21:24.535Z,66.60
2022-07-26T16:23:51.282Z,69.10
2022-07-26T16:26:18.479Z,68.61
2022-07-26T16:28:45.408Z,67.37
2022-07-26T16:31:12.441Z,68.10
2022-07-26T16:33:46.090Z,66.28
2022-07-26T16:36:13.726Z,66.27
2022-07-26T16:38:40.359Z,65.43
2022-07-26T16:41:07.001Z,65.71
2022-07-26T16:43:33.637Z,65.36
2022-07-26T16:46:00.692Z,65.95
2022-07-26T16:48:27.325Z,66.22
2022-07-26T16:50:53.954Z,66.43
2022-07-26T16:53:20.714Z,65.87
2022-07-26T16:55:47.467Z,65.83
2022-07-26T16:58:14.090Z,65.52
2022-07-26T17:00:41.118Z,65.25
2022-07-26T17:03:07.824Z,65.50
2022-07-26T17:05:34.520Z,64.74
2022-07-26T17:08:01.272Z,64.24
2022-07-26T17:10:27.959Z,64.65
2022-07-26T17:12:54.601Z,63.92
2022-07-26T17:15:21.350Z,63.82
2022-07-26T17:17:49.024Z,63.84
2022-07-26T17:20:16.828Z,63.25
2022-07-26T17:22:43.505Z,63.41
2022-07-26T17:25:10.299Z,61.55
2022-07-26T17:27:37.059Z,61.48
2022-07-26T17:30:09.134Z,60.35
2022-07-26T17:32:35.924Z,59.45
2022-07-26T17:35:02.592Z,59.91
2022-07-26T17:37:29.235Z,60.14
2022-07-26T17:39:57.333Z,61.57
2022-07-26T17:42:24.357Z,62.25
2022-07-26T17:44:51.322Z,62.74
2022-07-26T17:47:29.292Z,62.42
2022-07-26T17:50:14.076Z,63.48
2022-07-26T17:52:45.967Z,64.45
2022-07-26T17:55:12.642Z,64.06
2022-07-26T17:57:39.353Z,64.23
2022-07-26T18:00:06.981Z,64.47
2022-07-26T18:02:33.731Z,63.80
2022-07-26T18:05:00.467Z,62.92
2022-07-26T18:07:27.201Z,63.57
2022-07-26T18:09:53.939Z,63.42
2022-07-26T18:12:20.632Z,63.81
2022-07-26T18:14:47.317Z,64.25
2022-07-26T18:17:14.003Z,65.28
2022-07-26T18:19:40.640Z,64.41
2022-07-26T18:22:07.264Z,65.10
2022-07-26T18:24:33.905Z,64.58
2022-07-26T18:27:00.546Z,65.03
2022-07-26T18:29:27.191Z,65.71
2022-07-26T18:31:54.013Z,65.14
2022-07-26T18:34:20.695Z,65.87
2022-07-26T18:36:47.333Z,66.73
2022-07-26T18:39:14.421Z,66.06
2022-07-26T18:41:41.235Z,67.18
2022-07-26T18:44:07.898Z,66.15
2022-07-26T18:46:34.624Z,67.56
2022-07-26T18:49:01.447Z,68.80
2022-07-26T18:51:29.291Z,69.37
2022-07-26T18:53:58.438Z,68.27
2022-07-26T18:56:25.085Z,68.64
2022-07-26T18:58:51.706Z,69.20
2022-07-26T19:01:18.419Z,70.41
2022-07-26T19:03:45.223Z,69.55
2022-07-26T19:06:11.964Z,71.03
2022-07-26T19:08:38.872Z,72.25
2022-07-26T19:11:05.665Z,71.61
2022-07-26T19:13:32.313Z,73.22
2022-07-26T19:15:59.030Z,72.54
2022-07-26T19:18:25.743Z,72.12
2022-07-26T19:20:52.386Z,72.00
2022-07-26T19:23:19.236Z,73.29
2022-07-26T19:25:45.926Z,73.97
2022-07-26T19:28:14.006Z,73.93
2022-07-26T19:30:40.973Z,74.09
2022-07-26T19:33:07.617Z,73.40
2022-07-26T19:35:34.256Z,73.83
2022-07-26T19:38:00.936Z,75.24
2022-07-26T19:40:27.694Z,74.98
2022-07-26T19:42:54.323Z,73.66
2022-07-26T19:45:21.175Z,73.26
2022-07-26T19:47:48.157Z,75.25
2022-07-26T19:50:14.905Z,75.96
2022-07-26T19:52:41.536Z,76.26
2022-07-26T19:55:09.449Z,75.16
2022-07-26T19:57:36.700Z,74.54
2022-07-26T20:00:07.804Z,76.06
2022-07-26T20:02:34.521Z,75.05
2022-07-26T20:05:01.304Z,75.81
2022-07-26T20:07:27.992Z,75.03
2022-07-26T20:09:54.754Z,76.89
2022-07-26T20:12:21.911Z,76.88
2022-07-26T20:14:48.750Z,75.55
2022-07-26T20:17:16.143Z,75.72
2022-07-26T20:19:42.876Z,76.84
2022-07-26T20:22:09.722Z,76.06
2022-07-26T20:24:36.536Z,76.70
2022-07-26T20:27:03.193Z,76.95
2022-07-26T20:29:29.832Z,75.43
2022-07-26T20:31:56.495Z,74.80
2022-07-26T20:34:23.221Z,76.27
2022-07-26T20:36:49.882Z,75.53
2022-07-26T20:39:16.564Z,76.07
2022-07-26T20:41:43.195Z,77.00
2022-07-26T20:44:09.964Z,77.11
2022-07-26T20:46:36.746Z,75.73
2022-07-26T20:49:03.464Z,74.88
2022-07-26T20:51:30.116Z,75.66
2022-07-26T20:53:56.822Z,76.32
2022-07-26T20:56:23.466Z,75.36
2022-07-26T20:58:50.137Z,74.86
2022-07-26T21:01:17.388Z,74.39
2022-07-26T21:03:44.079Z,75.56
2022-07-26T21:06:10.722Z,75.40
2022-07-26T21:08:37.390Z,75.07
2022-07-26T21:11:04.029Z,74.56
2022-07-26T21:13:30.723Z,75.05
2022-07-26T21:15:57.351Z,74.13
2022-07-26T21:18:23.984Z,73.96
2022-07-26T21:20:50.616Z,74.25
2022-07-26T21:23:18.405Z,73.89
2022-07-26T21:25:45.334Z,72.88
2022-07-26T21:28:11.989Z,73.81
2022-07-26T21:30:38.890Z,73.36
2022-07-26T21:33:05.571Z,74.24
2022-07-26T21:35:32.440Z,72.75
2022-07-26T21:37:59.109Z,73.19
2022-07-26T21:40:26.120Z,72.69
2022-07-26T21:42:52.837Z,73.06
2022-07-26T21:45:19.627Z,72.85
2022-07-26T21:47:46.278Z,73.04
2022-07-26T21:50:12.932Z,73.31
2022-07-26T21:52:40.449Z,73.78
2022-07-26T21:55:07.617Z,72.92
2022-07-26T21:57:34.277Z,74.27
2022-07-26T22:00:00.922Z,74.85
2022-07-26T22:02:27.673Z,74.23
2022-07-26T22:04:54.392Z,74.39
2022-07-26T22:07:21.030Z,76.04
2022-07-26T22:09:47.658Z,75.65
2022-07-26T22:12:14.279Z,75.59
2022-07-26T22:14:40.981Z,73.81
2022-07-26T22:17:07.601Z,73.47
2022-07-26T22:19:34.234Z,75.10
2022-07-26T22:22:01.128Z,74.66
2022-07-26T22:24:27.996Z,74.17
2022-07-26T22:26:54.618Z,73.60
2022-07-26T22:29:21.251Z,73.59
2022-07-26T22:31:47.879Z,74.31
2022-07-26T22:34:14.546Z,73.58
2022-07-26T22:36:45.395Z,73.50
2022-07-26T22:39:12.863Z,73.26
2022-07-26T22:42:05.108Z,72.96
2022-07-26T22:44:26.465Z,73.12
2022-07-26T22:46:53.107Z,73.04
2022-07-26T22:49:19.810Z,73.51
2022-07-26T22:51:46.908Z,72.19
2022-07-26T22:54:13.578Z,71.39
2022-07-26T22:56:40.210Z,71.11
2022-07-26T22:59:06.840Z,71.19
2022-07-26T23:01:33.515Z,70.88
2022-07-26T23:04:00.747Z,71.72
2022-07-26T23:06:32.016Z,71.31
2022-07-26T23:08:59.178Z,70.68
2022-07-26T23:11:25.850Z,70.84
2022-07-26T23:13:58.940Z,71.02
2022-07-26T23:16:26.781Z,71.05
2022-07-26T23:18:53.504Z,71.02
2022-07-26T23:21:20.221Z,68.90
2022-07-26T23:23:46.828Z,70.57
2022-07-26T23:26:13.694Z,72.15
2022-07-26T23:28:40.401Z,71.20
2022-07-26T23:31:11.375Z,70.34
2022-07-26T23:33:52.932Z,71.18
2022-07-26T23:36:28.423Z,69.50
2022-07-26T23:38:57.094Z,70.19
2022-07-26T23:41:24.768Z,69.38
2022-07-26T23:43:52.068Z,70.20
2022-07-26T23:46:18.754Z,69.57
2022-07-26T23:48:45.973Z,70.43
2022-07-26T23:51:12.768Z,69.64
2022-07-26T23:53:39.523Z,69.54
2022-07-26T23:56:06.264Z,67.99
2022-07-26T23:58:33.026Z,69.17
